createdAt,value
2022-08-22T00:01:21.266Z,101548.56
2022-08-22T00:02:42.143Z,101539.72
2022-08-22T00:02:49.119Z,101562.78
2022-08-22T00:02:49.988Z,101567.72
2022-08-22T00:02:58.750Z,101565.22
2022-08-22T00:03:11.931Z,101561.44
2022-08-22T00:03:58.422Z,101539.47
2022-08-22T00:06:41.492Z,101541.59
2022-08-22T00:09:29.661Z,101477.13
2022-08-22T00:12:17.060Z,101539.59
2022-08-22T00:14:56.654Z,101549.72
2022-08-22T00:17:41.691Z,101561.41
2022-08-22T00:20:17.219Z,101554.47
2022-08-22T00:22:53.586Z,101552.03
2022-08-22T00:25:42.135Z,101548.56
2022-08-22T00:28:17.202Z,101547.94
2022-08-22T00:30:58.435Z,101551.50
2022-08-22T00:33:36.660Z,101555.09
2022-08-22T00:36:16.577Z,101555.28
2022-08-22T00:38:52.271Z,101558.16
2022-08-22T00:41:42.610Z,101560.22
2022-08-22T00:45:00.218Z,101561.19
2022-08-22T00:47:58.307Z,101555.59
2022-08-22T00:50:46.428Z,101555.59
2022-08-22T00:53:41.229Z,101556.66
2022-08-22T00:56:33.460Z,101562.22
2022-08-22T00:59:23.093Z,101552.81
2022-08-22T01:02:01.843Z,101558.38
2022-08-22T01:04:49.703Z,101560.16
2022-08-22T01:07:38.211Z,101554.13
2022-08-22T01:10:24.791Z,101553.41
2022-08-22T01:13:14.921Z,101550.97
2022-08-22T01:15:46.301Z,101553.63
2022-08-22T01:18:36.593Z,101562.75
2022-08-22T01:21:53.984Z,101562.31
2022-08-22T01:25:22.626Z,101559.97
2022-08-22T01:28:36.425Z,101550.16
2022-08-22T01:31:51.693Z,101560.38
2022-08-22T01:35:00.949Z,101562.47
2022-08-22T01:37:48.374Z,101554.47
2022-08-22T01:40:57.191Z,101555.81
2022-08-22T01:44:00.155Z,101562.56
2022-08-22T01:46:37.507Z,101571.25
2022-08-22T01:49:14.874Z,101552.06
2022-08-22T01:51:51.834Z,101559.13
2022-08-22T01:54:36.166Z,101575.28
2022-08-22T01:57:09.000Z,101569.72
2022-08-22T01:59:43.961Z,101537.63
2022-08-22T02:02:33.224Z,101572.44
2022-08-22T02:05:08.092Z,101574.16
2022-08-22T02:07:50.081Z,101570.56
2022-08-22T02:10:26.916Z,101571.22
2022-08-22T02:13:06.965Z,101556.13
2022-08-22T02:15:53.072Z,101568.03
2022-08-22T02:18:31.186Z,101558.44
2022-08-22T02:21:07.283Z,101556.00
2022-08-22T02:23:52.245Z,101559.94
2022-08-22T02:26:30.543Z,101558.16
2022-08-22T02:29:07.390Z,101551.94
2022-08-22T02:31:44.666Z,101550.25
2022-08-22T02:34:29.657Z,101529.16
2022-08-22T02:37:10.270Z,101548.34
2022-08-22T02:39:46.974Z,101545.63
2022-08-22T02:42:27.932Z,101553.63
2022-08-22T02:45:13.811Z,101538.56
2022-08-22T02:47:54.681Z,101533.41
2022-08-22T02:50:35.026Z,101540.56
2022-08-22T02:53:09.604Z,101535.31
2022-08-22T02:55:49.289Z,101541.22
2022-08-22T02:58:27.517Z,101544.56
2022-08-22T03:01:26.102Z,101540.44
2022-08-22T03:04:26.885Z,101532.75
2022-08-22T03:07:12.468Z,101540.56
2022-08-22T03:09:49.591Z,101530.88
2022-08-22T03:12:32.179Z,101524.47
2022-08-22T03:15:08.923Z,101522.03
2022-08-22T03:17:48.204Z,101521.38
2022-08-22T03:20:36.520Z,101499.56
2022-08-22T03:23:12.934Z,101513.81
2022-08-22T03:25:50.313Z,101514.53
2022-08-22T03:28:26.533Z,101501.34
2022-08-22T03:31:01.260Z,101506.00
2022-08-22T03:33:32.646Z,101506.00
2022-08-22T03:36:11.516Z,101507.03
2022-08-22T03:38:50.258Z,101506.19
2022-08-22T03:42:03.846Z,101513.38
2022-08-22T03:45:04.095Z,101505.63
2022-08-22T03:48:05.193Z,101501.13
2022-08-22T03:51:05.976Z,101496.28
2022-08-22T03:53:56.773Z,101489.53
2022-08-22T03:56:45.577Z,101493.28
2022-08-22T03:59:49.926Z,101503.53
2022-08-22T04:02:43.209Z,101498.84
2022-08-22T04:05:41.367Z,101433.88
2022-08-22T04:08:51.362Z,101508.63
2022-08-22T04:11:40.127Z,101509.56
2022-08-22T04:14:29.026Z,101502.06
2022-08-22T04:17:27.501Z,101508.19
2022-08-22T04:20:34.987Z,101505.94
2022-08-22T04:23:32.396Z,101510.25
2022-08-22T04:26:12.142Z,101423.91
2022-08-22T04:28:49.763Z,101508.47
2022-08-22T04:31:26.138Z,101516.34
2022-08-22T04:34:03.060Z,101524.06
2022-08-22T04:36:39.641Z,101516.63
2022-08-22T04:39:18.871Z,101522.75
2022-08-22T04:41:53.350Z,101431.25
2022-08-22T04:44:28.119Z,101525.28
2022-08-22T04:47:08.228Z,101501.69
2022-08-22T04:49:41.591Z,101505.75
2022-08-22T04:52:29.410Z,101533.63
2022-08-22T04:55:09.649Z,101531.00
2022-08-22T04:57:51.758Z,101535.41
2022-08-22T05:00:20.863Z,101535.69
2022-08-22T05:02:53.879Z,101538.06
2022-08-22T05:05:28.155Z,101528.66
2022-08-22T05:07:59.773Z,101532.25
2022-08-22T05:10:34.009Z,101543.91
2022-08-22T05:13:07.444Z,101534.88
2022-08-22T05:15:39.729Z,101545.00
2022-08-22T05:18:15.847Z,101548.38
2022-08-22T05:20:49.356Z,101548.38
2022-08-22T05:23:21.707Z,101546.69
2022-08-22T05:25:55.813Z,101548.38
2022-08-22T05:28:33.782Z,101547.66
2022-08-22T05:31:08.069Z,101550.28
2022-08-22T05:33:42.136Z,101557.19
2022-08-22T05:36:15.969Z,101556.28
2022-08-22T05:38:50.427Z,101553.63
2022-08-22T05:41:23.783Z,101555.13
2022-08-22T05:43:54.929Z,101556.72
2022-08-22T05:46:27.139Z,101560.19
2022-08-22T05:48:59.964Z,101560.97
2022-08-22T05:51:39.053Z,101563.59
2022-08-22T05:54:14.803Z,101556.28
2022-08-22T05:56:53.301Z,101552.78
2022-08-22T05:59:27.318Z,101561.44
2022-08-22T06:02:05.290Z,101570.94
2022-08-22T06:04:50.098Z,101566.50
2022-08-22T06:07:25.295Z,101572.63
2022-08-22T06:10:13.654Z,101569.88
2022-08-22T06:12:53.485Z,101572.22
2022-08-22T06:15:28.929Z,101568.66
2022-08-22T06:18:01.972Z,101444.41
2022-08-22T06:20:36.161Z,101576.91
2022-08-22T06:23:09.122Z,101573.25
2022-08-22T06:25:43.099Z,101573.03
2022-08-22T06:28:17.781Z,101566.53
2022-08-22T06:30:47.755Z,101575.94
2022-08-22T06:33:23.173Z,101573.66
2022-08-22T06:36:13.730Z,101572.09
2022-08-22T06:38:58.871Z,101573.81
2022-08-22T06:41:35.077Z,101575.31
2022-08-22T06:44:06.759Z,101588.19
2022-08-22T06:46:38.916Z,101578.41
2022-08-22T06:49:10.616Z,101562.69
2022-08-22T06:51:40.513Z,101572.84
2022-08-22T06:54:20.519Z,101579.13
2022-08-22T06:56:55.326Z,101570.59
2022-08-22T06:59:27.186Z,101575.47
2022-08-22T07:02:03.478Z,101568.59
2022-08-22T07:04:33.091Z,101563.84
2022-08-22T07:07:03.403Z,101567.25
2022-08-22T07:09:37.351Z,101559.25
2022-08-22T07:12:18.392Z,101550.47
2022-08-22T07:14:50.757Z,101547.34
2022-08-22T07:17:23.600Z,101516.44
2022-08-22T07:20:00.604Z,101540.22
2022-08-22T07:22:33.150Z,101541.97
2022-08-22T07:25:08.953Z,101531.66
2022-08-22T07:27:56.173Z,101534.78
2022-08-22T07:30:35.782Z,101529.75
2022-08-22T07:33:25.995Z,101514.69
2022-08-22T07:36:01.715Z,101515.66
2022-08-22T07:38:42.752Z,101516.59
2022-08-22T07:41:18.741Z,101509.38
2022-08-22T07:43:51.658Z,101511.47
2022-08-22T07:46:30.322Z,101513.91
2022-08-22T07:49:09.534Z,101513.53
2022-08-22T07:51:44.677Z,101509.13
2022-08-22T07:54:17.021Z,101515.41
2022-08-22T07:57:03.724Z,101517.66
2022-08-22T07:59:36.130Z,101513.53
2022-08-22T08:02:13.151Z,101518.47
2022-08-22T08:04:43.566Z,101520.75
2022-08-22T08:07:17.225Z,101515.72
2022-08-22T08:09:51.727Z,101534.06
2022-08-22T08:12:31.763Z,101513.94
2022-08-22T08:15:04.184Z,101511.97
2022-08-22T08:17:37.045Z,101518.72
2022-08-22T08:20:11.179Z,101521.38
2022-08-22T08:22:44.077Z,101518.81
2022-08-22T08:25:17.216Z,101516.47
2022-08-22T08:28:04.824Z,101519.84
2022-08-22T08:30:38.536Z,101515.91
2022-08-22T08:33:26.215Z,101512.38
2022-08-22T08:36:03.212Z,101507.44
2022-08-22T08:38:41.596Z,101507.91
2022-08-22T08:41:49.100Z,101503.06
2022-08-22T08:44:39.442Z,101504.03
2022-08-22T08:47:24.591Z,101504.28
2022-08-22T08:50:20.190Z,101503.41
2022-08-22T08:53:17.574Z,101490.22
2022-08-22T08:55:52.396Z,101492.03
2022-08-22T08:58:35.380Z,101502.31
2022-08-22T09:01:27.707Z,101496.63
2022-08-22T09:04:19.891Z,101499.66
2022-08-22T09:07:06.603Z,101479.03
2022-08-22T09:09:56.931Z,101496.34
2022-08-22T09:12:54.284Z,101503.31
2022-08-22T09:15:58.631Z,101498.44
2022-08-22T09:19:02.682Z,101494.81
2022-08-22T09:22:14.613Z,101491.66
2022-08-22T09:25:06.108Z,101489.75
2022-08-22T09:27:39.300Z,101490.97
2022-08-22T09:30:12.382Z,101482.38
2022-08-22T09:32:58.249Z,101482.31
2022-08-22T09:35:39.754Z,101474.78
2022-08-22T09:38:31.194Z,101474.28
2022-08-22T09:41:12.675Z,101476.78
2022-08-22T09:43:48.907Z,101484.66
2022-08-22T09:46:29.559Z,101476.28
2022-08-22T09:49:06.688Z,101477.75
2022-08-22T09:51:46.118Z,101476.19
2022-08-22T09:54:22.920Z,101472.16
2022-08-22T09:57:13.877Z,101471.50
2022-08-22T09:59:58.202Z,101467.69
2022-08-22T10:02:34.681Z,101461.91
2022-08-22T10:05:40.912Z,101465.19
2022-08-22T10:08:20.069Z,101456.88
2022-08-22T10:11:11.374Z,101454.31
2022-08-22T10:13:57.729Z,101447.28
2022-08-22T10:17:04.593Z,101450.50
2022-08-22T10:19:41.289Z,101407.47
2022-08-22T10:22:34.219Z,101443.31
2022-08-22T10:25:24.668Z,101429.72
2022-08-22T10:28:10.621Z,101461.44
2022-08-22T10:30:51.015Z,101435.63
2022-08-22T10:33:29.873Z,101442.66
2022-08-22T10:36:05.491Z,101442.34
2022-08-22T10:38:43.986Z,101449.19
2022-08-22T10:41:29.272Z,101451.53
2022-08-22T10:44:04.469Z,101441.09
2022-08-22T10:46:39.025Z,101435.22
2022-08-22T10:49:20.556Z,101436.59
2022-08-22T10:51:58.227Z,101433.50
2022-08-22T10:54:39.504Z,101432.34
2022-08-22T10:57:22.678Z,101433.25
2022-08-22T11:00:02.904Z,101434.75
2022-08-22T11:02:47.128Z,101437.50
2022-08-22T11:05:28.475Z,101426.34
2022-08-22T11:08:11.837Z,101429.22
2022-08-22T11:10:52.293Z,101431.56
2022-08-22T11:13:31.963Z,101440.78
2022-08-22T11:16:09.170Z,101395.50
2022-08-22T11:19:02.065Z,101439.31
2022-08-22T11:21:46.254Z,101435.09
2022-08-22T11:24:55.980Z,101417.88
2022-08-22T11:27:38.085Z,101442.59
2022-08-22T11:30:18.402Z,101437.22
2022-08-22T11:33:14.666Z,101436.28
2022-08-22T11:35:48.759Z,101437.47
2022-08-22T11:38:32.690Z,101433.59
2022-08-22T11:41:07.393Z,101436.25
2022-08-22T11:43:52.034Z,101432.06
2022-08-22T11:46:29.221Z,101431.19
2022-08-22T11:49:16.063Z,101441.47
2022-08-22T11:52:09.682Z,101442.69
2022-08-22T11:55:09.300Z,101437.84
2022-08-22T11:57:44.750Z,101441.06
2022-08-22T12:00:33.415Z,101440.28
2022-08-22T12:03:34.795Z,101432.56
2022-08-22T12:06:09.678Z,101340.28
2022-08-22T12:09:20.588Z,101434.25
2022-08-22T12:12:20.197Z,101431.22
2022-08-22T12:14:58.466Z,101431.91
2022-08-22T12:18:12.738Z,101420.53
2022-08-22T12:21:00.945Z,101420.91
2022-08-22T12:23:55.855Z,101415.22
2022-08-22T12:26:34.806Z,101417.91
2022-08-22T12:29:23.340Z,101415.53
2022-08-22T12:32:34.807Z,101406.13
2022-08-22T12:35:30.252Z,101405.63
2022-08-22T12:38:29.091Z,101397.75
2022-08-22T12:41:14.382Z,101399.72
2022-08-22T12:44:05.508Z,101389.66
2022-08-22T12:46:49.376Z,101393.63
2022-08-22T12:49:34.096Z,101388.69
2022-08-22T12:52:19.751Z,101387.25
2022-08-22T12:55:24.841Z,101392.16
2022-08-22T12:58:08.101Z,101389.16
2022-08-22T13:00:38.692Z,101384.28
2022-08-22T13:03:11.370Z,101380.47
2022-08-22T13:05:46.115Z,101378.94
2022-08-22T13:08:32.185Z,101379.25
2022-08-22T13:11:09.926Z,101377.66
2022-08-22T13:13:56.247Z,101375.34
2022-08-22T13:16:36.511Z,101365.00
2022-08-22T13:19:13.478Z,101374.66
2022-08-22T13:21:48.225Z,101374.00
2022-08-22T13:24:38.592Z,101369.78
2022-08-22T13:27:15.016Z,101371.63
2022-08-22T13:29:52.609Z,101360.91
2022-08-22T13:32:26.623Z,101364.56
2022-08-22T13:34:59.448Z,101362.22
2022-08-22T13:37:36.231Z,101369.34
2022-08-22T13:40:11.526Z,101365.16
2022-08-22T13:42:48.270Z,101349.97
2022-08-22T13:45:25.593Z,101357.16
2022-08-22T13:47:58.496Z,101342.09
2022-08-22T13:50:30.120Z,101349.09
2022-08-22T13:53:30.852Z,101347.19
2022-08-22T13:56:07.582Z,101342.56
2022-08-22T13:58:50.470Z,101314.72
2022-08-22T14:01:34.793Z,101277.13
2022-08-22T14:04:33.437Z,101334.84
2022-08-22T14:07:25.471Z,101334.91
2022-08-22T14:09:59.496Z,101338.81
2022-08-22T14:12:50.066Z,101329.28
2022-08-22T14:15:26.120Z,101307.38
2022-08-22T14:18:11.837Z,101336.59
2022-08-22T14:20:43.348Z,101337.19
2022-08-22T14:23:17.638Z,101323.56
2022-08-22T14:25:47.224Z,101326.31
2022-08-22T14:28:27.450Z,101331.44
2022-08-22T14:31:03.653Z,101327.84
2022-08-22T14:33:39.969Z,101324.97
2022-08-22T14:36:17.204Z,101320.13
2022-08-22T14:38:51.928Z,101320.81
2022-08-22T14:41:52.429Z,101320.47
2022-08-22T14:44:26.535Z,101293.44
2022-08-22T14:46:58.610Z,101318.75
2022-08-22T14:49:38.261Z,101315.47
2022-08-22T14:52:10.789Z,101312.09
2022-08-22T14:54:51.145Z,101319.00
2022-08-22T14:57:22.259Z,101310.75
2022-08-22T14:59:54.096Z,101313.41
2022-08-22T15:02:29.359Z,101318.44
2022-08-22T15:05:13.106Z,101308.53
2022-08-22T15:07:55.611Z,101314.50
2022-08-22T15:10:31.729Z,101312.75
2022-08-22T15:13:08.092Z,101315.94
2022-08-22T15:15:53.416Z,101316.97
2022-08-22T15:18:36.098Z,101309.28
2022-08-22T15:21:10.345Z,101309.94
2022-08-22T15:23:46.782Z,101310.28
2022-08-22T15:26:25.530Z,101307.13
2022-08-22T15:28:59.371Z,101304.63
2022-08-22T15:31:28.501Z,101313.94
2022-08-22T15:34:12.312Z,101298.91
2022-08-22T15:37:09.073Z,101297.13
2022-08-22T15:40:00.273Z,101299.41
2022-08-22T15:42:35.876Z,101291.59
2022-08-22T15:45:07.169Z,101284.75
2022-08-22T15:47:40.267Z,101285.25
2022-08-22T15:50:28.546Z,101284.56
2022-08-22T15:53:14.545Z,101249.47
2022-08-22T15:56:28.197Z,101274.19
2022-08-22T15:59:29.654Z,101271.84
2022-08-22T16:02:04.828Z,101274.91
2022-08-22T16:04:47.279Z,101265.84
2022-08-22T16:07:42.075Z,101263.50
2022-08-22T16:10:29.339Z,101262.81
2022-08-22T16:13:16.507Z,101233.09
2022-08-22T16:16:01.896Z,101247.13
2022-08-22T16:19:08.312Z,101244.81
2022-08-22T16:22:06.674Z,101256.50
2022-08-22T16:24:58.304Z,101249.44
2022-08-22T16:27:30.591Z,101256.81
2022-08-22T16:30:07.266Z,101246.13
2022-08-22T16:32:37.602Z,101244.28
2022-08-22T16:35:07.157Z,101244.13
2022-08-22T16:37:48.051Z,101240.09
2022-08-22T16:40:24.050Z,101246.09
2022-08-22T16:43:14.461Z,101236.44
2022-08-22T16:45:46.179Z,101240.13
2022-08-22T16:48:24.734Z,101240.72
2022-08-22T16:51:05.189Z,101245.50
2022-08-22T16:54:10.610Z,101241.00
2022-08-22T16:57:04.227Z,101234.94
2022-08-22T16:59:47.662Z,101247.81
2022-08-22T17:02:43.204Z,101237.47
2022-08-22T17:05:20.799Z,101243.88
2022-08-22T17:08:02.482Z,101239.16
2022-08-22T17:10:49.231Z,101127.81
2022-08-22T17:13:38.258Z,101233.41
2022-08-22T17:16:39.357Z,101238.84
2022-08-22T17:19:24.230Z,101237.19
2022-08-22T17:21:58.860Z,101249.22
2022-08-22T17:24:37.619Z,101247.84
2022-08-22T17:27:22.301Z,101248.47
2022-08-22T17:30:02.140Z,101242.31
2022-08-22T17:32:42.750Z,101254.16
2022-08-22T17:35:25.933Z,101249.47
2022-08-22T17:38:08.640Z,101248.41
2022-08-22T17:40:41.473Z,101253.03
2022-08-22T17:43:49.228Z,101246.50
2022-08-22T17:46:35.365Z,101245.50
2022-08-22T17:49:20.393Z,101248.25
2022-08-22T17:52:08.556Z,101264.59
2022-08-22T17:54:41.670Z,101261.09
2022-08-22T17:57:14.664Z,101262.16
2022-08-22T17:59:50.792Z,101266.22
2022-08-22T18:02:26.544Z,101268.25
2022-08-22T18:05:06.947Z,101269.84
2022-08-22T18:08:00.878Z,101278.09
2022-08-22T18:10:39.017Z,101279.22
2022-08-22T18:13:13.336Z,101273.22
2022-08-22T18:15:48.490Z,101262.03
2022-08-22T18:18:31.225Z,101270.09
2022-08-22T18:21:08.235Z,101137.59
2022-08-22T18:23:42.444Z,101284.69
2022-08-22T18:26:25.658Z,101279.16
2022-08-22T18:29:08.406Z,101288.72
2022-08-22T18:31:49.396Z,101233.75
2022-08-22T18:34:26.405Z,101282.75
2022-08-22T18:37:04.831Z,101289.50
2022-08-22T18:39:47.091Z,101285.03
2022-08-22T18:42:28.145Z,101292.63
2022-08-22T18:44:59.303Z,101280.19
2022-08-22T18:47:32.105Z,101292.50
2022-08-22T18:50:03.759Z,101285.13
2022-08-22T18:52:42.869Z,101298.41
2022-08-22T18:55:28.194Z,101295.34
2022-08-22T18:58:21.931Z,101294.78
2022-08-22T19:01:10.664Z,101292.28
2022-08-22T19:04:00.437Z,101296.22
2022-08-22T19:06:47.807Z,101298.47
2022-08-22T19:09:55.985Z,101309.38
2022-08-22T19:12:51.403Z,101311.47
2022-08-22T19:15:35.261Z,101306.59
2022-08-22T19:18:19.405Z,101305.47
2022-08-22T19:21:47.277Z,101309.38
2022-08-22T19:24:57.579Z,101316.06
2022-08-22T19:27:31.557Z,101324.16
2022-08-22T19:30:03.242Z,101310.47
2022-08-22T19:33:00.379Z,101310.19
2022-08-22T19:35:40.140Z,101307.94
2022-08-22T19:38:10.734Z,101294.53
2022-08-22T19:40:55.554Z,101306.97
2022-08-22T19:43:35.927Z,101305.69
2022-08-22T19:46:07.802Z,101309.31
2022-08-22T19:48:46.831Z,101302.03
2022-08-22T19:51:29.307Z,101310.13
2022-08-22T19:54:21.474Z,101309.00
2022-08-22T19:57:07.038Z,101290.09
2022-08-22T19:59:59.588Z,101298.09
2022-08-22T20:02:37.758Z,101303.94
2022-08-22T20:05:28.748Z,101308.97
2022-08-22T20:08:15.128Z,101306.94
2022-08-22T20:10:55.130Z,101303.44
2022-08-22T20:13:26.564Z,101305.78
2022-08-22T20:16:07.887Z,101276.41
2022-08-22T20:19:16.609Z,101308.25
2022-08-22T20:21:53.876Z,101309.91
2022-08-22T20:24:30.189Z,101309.44
2022-08-22T20:27:13.990Z,101283.84
2022-08-22T20:29:49.514Z,101298.69
2022-08-22T20:32:23.451Z,101305.91
2022-08-22T20:34:57.037Z,101285.91
2022-08-22T20:38:02.860Z,101303.09
2022-08-22T20:40:55.004Z,101301.94
2022-08-22T20:43:29.615Z,101305.66
2022-08-22T20:46:22.035Z,101297.63
2022-08-22T20:48:57.318Z,101297.06
2022-08-22T20:51:32.575Z,101298.97
2022-08-22T20:54:10.345Z,101302.69
2022-08-22T20:56:53.475Z,101303.78
2022-08-22T20:59:30.201Z,101307.13
2022-08-22T21:02:09.934Z,101295.97
2022-08-22T21:04:53.901Z,101290.53
2022-08-22T21:07:27.563Z,101295.38
2022-08-22T21:10:22.325Z,101298.88
2022-08-22T21:13:06.396Z,101299.44
2022-08-22T21:15:38.635Z,101287.91
2022-08-22T21:18:12.241Z,101286.09
2022-08-22T21:20:42.873Z,101160.88
2022-08-22T21:23:20.810Z,101298.22
2022-08-22T21:25:58.502Z,101295.00
2022-08-22T21:28:31.205Z,101292.81
2022-08-22T21:31:01.807Z,101173.00
2022-08-22T21:33:30.730Z,101294.34
2022-08-22T21:36:01.775Z,101285.25
2022-08-22T21:38:30.956Z,101288.59
2022-08-22T21:41:05.476Z,101167.34
2022-08-22T21:43:39.143Z,101280.47
2022-08-22T21:46:09.484Z,101297.78
2022-08-22T21:48:43.865Z,101218.75
2022-08-22T21:51:31.821Z,101278.53
2022-08-22T21:54:20.331Z,101284.66
2022-08-22T21:56:54.133Z,101285.03
2022-08-22T21:59:26.541Z,101277.63
2022-08-22T22:02:36.581Z,101281.50
2022-08-22T22:05:09.357Z,101215.03
2022-08-22T22:07:41.330Z,101259.94
2022-08-22T22:10:13.207Z,101294.13
2022-08-22T22:12:44.283Z,101295.72
2022-08-22T22:15:18.231Z,101297.28
2022-08-22T22:17:47.554Z,101285.75
2022-08-22T22:20:17.685Z,101288.41
2022-08-22T22:22:49.042Z,101300.81
2022-08-22T22:25:41.323Z,101283.16
2022-08-22T22:28:11.425Z,101299.13
2022-08-22T22:30:41.225Z,101285.97
2022-08-22T22:33:10.384Z,101296.16
2022-08-22T22:35:41.750Z,101275.41
2022-08-22T22:38:15.107Z,101287.31
2022-08-22T22:40:46.228Z,101296.41
2022-08-22T22:43:15.595Z,101294.88
2022-08-22T22:45:44.833Z,101296.06
2022-08-22T22:48:23.783Z,101302.31
2022-08-22T22:50:54.846Z,101308.00
2022-08-22T22:53:33.880Z,101292.75
2022-08-22T22:56:10.798Z,101297.78
2022-08-22T22:58:41.412Z,101304.78
2022-08-22T23:01:14.346Z,101301.44
2022-08-22T23:03:45.044Z,101297.94
2022-08-22T23:06:15.478Z,101306.94
2022-08-22T23:08:47.392Z,101306.22
2022-08-22T23:11:19.350Z,101304.69
2022-08-22T23:13:49.823Z,101294.47
2022-08-22T23:16:23.996Z,101304.78
2022-08-22T23:18:54.063Z,101307.06
2022-08-22T23:21:26.750Z,101305.38
2022-08-22T23:23:58.843Z,101295.81
2022-08-22T23:26:28.324Z,101297.25
2022-08-22T23:28:58.566Z,101294.25
2022-08-22T23:31:33.985Z,101294.72
2022-08-22T23:34:08.085Z,101287.88
2022-08-22T23:36:41.248Z,101289.06
2022-08-22T23:39:12.607Z,101294.47
2022-08-22T23:41:43.084Z,101288.47
2022-08-22T23:44:15.253Z,101289.81
2022-08-22T23:46:47.408Z,101289.22
2022-08-22T23:49:17.129Z,101291.09
2022-08-22T23:51:47.739Z,101292.19
2022-08-22T23:54:19.466Z,101212.09
2022-08-22T23:56:50.736Z,101279.78
2022-08-22T23:59:22.696Z,101280.63
